Churchland, North Carolina
Current Conditions -  °F | °C
As of 6:15 PM on Friday 19 Dec 2014 (Local Time) from KEXX Reporting Station
Clear Clear  
Wind Chill:   Ceiling: Unl
Heat Index:   Visibility: 10mi
Dew Point: -3°   Wind: 0mph
Humidity: 54%   Direction: NA
Pressure: 30.14"   Gusts: NA
Location:  35.7974°N, 80.2541°W
Report Text: KEXX 192315Z AUTO 00000KT 10SM CLR 06/M02 A3014 RMK AO2 T00621025
Loading
Personal Weather Stations






























Interactive Weather Map New forecast layout! Learn more

10-Day Weather Forecast

Advertisements
Track Severe Weather on mobile